Metar Cercanos

 

LEPA - Palma De Mallorc, Spain
Distance from station: ONO 38km
Actualización: 11/12/2017 17:30
Few Clouds
Few Clouds
 Viento del OSO
Viento: OSO 35 km/h
Temperatura: 14°C
Rocío: 9°C
Humedad: 72%
Barómetro: 997 hPa
Clouds: Few Clouds
Visibility: 10 km
Cloud details: Few Clouds 762 m
2017/12/11 16:30 LEPA 111630Z 25019KT 9999 FEW025 14/09 Q0997 NOSIG
LEMH - Mahon/Menorca Is, Spain
Distance from station: ENE 105km
Actualización: 11/12/2017 17:30
Muy nuboso
Muy nuboso
 Viento del OSO
Viento: OSO 35 km/h, Racha: 57 km/h
Temperatura: 14°C
Rocío: 10°C
Humedad: 77%
Barómetro: 997 hPa
Clouds: Muy nuboso
Visibility: 10 km
Cloud details: Few Clouds 762 m
Muy nuboso 1463 m
2017/12/11 16:30 LEMH 111630Z 24019G31KT 210V280 9999 FEW025 BKN048 14/10 Q0997
 
LEIB - Ibiza/Es Codola, Spain
Distance from station: OSO 165km
Actualización: 11/12/2017 17:30
Few Clouds
Few Clouds
 Viento del O
Viento: O 30 km/h
Temperatura: 13°C
Rocío: 5°C
Humedad: 59%
Barómetro: 998 hPa
Clouds: Few Clouds
Visibility: 10 km
Cloud details: Few Clouds 762 m
2017/12/11 16:30 LEIB 111630Z 26016KT 230V290 9999 FEW025 13/05 Q0998 NOSIG
LEBL - Barcelona Airpor, Spain
Distance from station: NNO 225km
Actualización: 11/12/2017 17:30
Few Clouds
Few Clouds
 Viento del O
Viento: O 22 km/h
Temperatura: 12°C
Rocío: 5°C
Humedad: 63%
Barómetro: 994 hPa
Clouds: Few Clouds
Visibility: 10 km
Cloud details: Few Clouds 762 m
2017/12/11 16:30 LEBL 111630Z 27012KT 9999 FEW025 12/05 Q0994 NOSIG
 
LEVC - Valencia (civ/Mi, Spain
Distance from station: NO 188km
Actualización: 11/12/2017 17:30
Few Clouds
Few Clouds
 Viento del O
Viento: O 28 km/h, Racha: 46 km/h
Temperatura: 13°C
Rocío: 4°C
Humedad: 55%
Barómetro: 998 hPa
Clouds: Few Clouds
Visibility: 10 km
Cloud details: Few Clouds 1219 m
2017/12/11 16:30 LEVC 111630Z 27015G25KT 9999 FEW040 13/04 Q0998 NOSIG
LEGE - Gerona/Costa Bra, Spain
Distance from station: N 276km
Actualización: 11/12/2017 17:30
Few Clouds
Few Clouds
 Viento del varies
Viento: varies 2 km/h
Temperatura: 12°C
Rocío: 4°C
Humedad: 58%
Barómetro: 993 hPa
Clouds: Few Clouds
Visibility: 10 km
Cloud details: Few Clouds 1067 m
2017/12/11 16:30 LEGE 111630Z VRB01KT 9999 FEW035 12/04 Q0993
 
LEAL - Alicante/El Alte, Spain
Distance from station: OSO 344km
Actualización: 11/12/2017 17:30
Few Clouds
Few Clouds
 Viento del O
Viento: O 20 km/h
Temperatura: 13°C
Rocío: 2°C
Humedad: 47%
Barómetro: 1000 hPa
Clouds: Few Clouds
Visibility: 10 km
Cloud details: Few Clouds 457 m
2017/12/11 16:30 LEAL 111630Z 27011KT 240V300 9999 FEW015 13/02 Q1000 NOSIG
LEAM - Almeria Airport, Spain
Distance from station: SSO 56km
Actualización: 11/12/2017 17:30
Few Clouds
Few Clouds
 Viento del O
Viento: O 17 km/h
Temperatura: 13°C
Rocío: 6°C
Humedad: 63%
Barómetro: 1002 hPa
Clouds: Few Clouds
Visibility: 10 km
Cloud details: Few Clouds 305 m
2017/12/11 16:30 LEAM 111630Z 26009KT 9999 FEW010 13/06 Q1002
 
LEZG - Zaragoza (mil/Ci, Spain
Distance from station: NO 431km
Actualización: 11/12/2017 17:30
Parcialmente nuboso
Parcialmente nuboso
 Viento del O
Viento: O 22 km/h
Temperatura: 12°C
Rocío: 0°C
Humedad: 44%
Barómetro: 995 hPa
Clouds: Parcialmente nuboso
Visibility: 10 km
Cloud details: Parcialmente nuboso 2286 m
2017/12/11 16:30 LEZG 111630Z 26012KT 9999 SCT075 12/00 Q0995
LEMD - Madrid/Barajas, Spain
Distance from station: ONO 234km
Actualización: 11/12/2017 17:30
Muy nuboso
Muy nuboso
 Viento del SO
Viento: SO 26 km/h
Temperatura: 9°C
Sensación frio: 6°C
Rocío: 2°C
Humedad: 62%
Barómetro: 998 hPa
Clouds: Muy nuboso
Visibility: 10 km
Cloud details: Few Clouds 1372 m
Muy nuboso 1798 m
2017/12/11 16:30 LEMD 111630Z 23014KT 9999 FEW045 BKN059 09/02 Q0998 NOSIG
 
LEGR - Granada Airport, Spain
Distance from station: OSO 62km
Actualización: 11/12/2017 17:30
Muy nuboso
Muy nuboso
 Viento del O
Viento: O 11 km/h
Temperatura: 8°C
Sensación frio: 6°C
Rocío: 4°C
Humedad: 76%
Barómetro: 1004 hPa
Clouds: Muy nuboso
Visibility: 10 km
Cloud details: Few Clouds 549 m
Parcialmente nuboso 1067 m
Muy nuboso 1372 m
2017/12/11 16:30 LEGR 111630Z 28006KT 260V320 9999 FEW018 SCT035 BKN045 08/04 Q1004
LEMG - Malaga (civ/Mil), Spain
Distance from station: OSO 227km
Actualización: 11/12/2017 17:30
Few Clouds
Few Clouds
 Viento del ONO
Viento: ONO 11 km/h
Temperatura: 13°C
Rocío: 5°C
Humedad: 59%
Barómetro: 1005 hPa
Clouds: Few Clouds
Visibility: 10 km
Cloud details: Few Clouds 1067 m
2017/12/11 16:30 LEMG 111630Z 30006KT 9999 FEW035 13/05 Q1005 NOSIG
 
LEZL - Sevilla (civ/Mil, Spain
Distance from station: S 318km
Actualización: 11/12/2017 17:30
Despejado
Despejado
 Viento del OSO
Viento: OSO 20 km/h
Temperatura: 15°C
Rocío: 7°C
Humedad: 59%
Barómetro: 1004 hPa
Resumen: Despejado
Visibility: greater than 10 km
2017/12/11 16:30 LEZL 111630Z 25011KT CAVOK 15/07 Q1004 NOSIG
LEVT - Vitoria, Spain
Distance from station: NO 226km
Actualización: 11/12/2017 17:30
Muy nuboso
Muy nuboso
 Viento del NO
Viento: NO 7 km/h
Temperatura: 5°C
Sensación frio: 3°C
Rocío: 3°C
Humedad: 87%
Barómetro: 997 hPa
Clouds: Muy nuboso
Visibility: 10 km
Cloud details: Few Clouds 488 m
Muy nuboso 792 m
2017/12/11 16:30 LEVT 111630Z 31004KT 250V360 9999 FEW016 BKN026 05/03 Q0997
 
LEBB - Bilbao/Sondica, Spain
Distance from station: NNO 235km
Actualización: 11/12/2017 17:30
Lluvia, Muy nuboso
Lluvia, Muy nuboso
 Viento del ONO
Viento: ONO 22 km/h, Racha: 43 km/h
Temperatura: 7°C
Sensación frio: 4°C
Rocío: 5°C
Humedad: 87%
Barómetro: 998 hPa
Resumen: Lluvia
Clouds: Muy nuboso
Visibility: 6 km
Cloud details: Few Clouds 792 m
Parcialmente nuboso 1067 m
Muy nuboso 1524 m
2017/12/11 16:30 LEBB 111630Z 29012G23KT 250V320 6000 RA FEW026 SCT035 BKN050 07/05 Q0998 TEMPO 3000 SHRA SCT020TCU
LESO - San Sebastian/Fu, Spain
Distance from station: N 231km
Actualización: 11/12/2017 17:30
Lluvia débil, Muy nuboso
Lluvia débil, Muy nuboso
 Viento del OSO
Viento: OSO 22 km/h
Temperatura: 9°C
Sensación frio: 6°C
Rocío: 5°C
Humedad: 76%
Barómetro: 996 hPa
Resumen: Lluvia débil
Clouds: Muy nuboso
Visibility: 10 km
Cloud details: Parcialmente nuboso 1067 m
Muy nuboso 1341 m
Muy nuboso 1646 m
2017/12/11 16:30 LESO 111630Z 24012KT 190V300 9999 -RA SCT035 BKN044 BKN054 09/05 Q0996
 
LEVD - Valladolid(Mil/C, Spain
Distance from station: ONO 239km
Actualización: 11/12/2017 17:30
Parcialmente nuboso
Parcialmente nuboso
 Viento del O
Viento: O 22 km/h
Temperatura: 5°C
Sensación frio: 1°C
Rocío: 2°C
Humedad: 81%
Barómetro: 998 hPa
Clouds: Parcialmente nuboso
Visibility: 10 km
Cloud details: Parcialmente nuboso 488 m
Parcialmente nuboso 823 m
2017/12/11 16:30 LEVD 111630Z 26012KT 9999 SCT016 SCT027 05/02 Q0998
LESA - Salamanca (civ/M, Spain
Distance from station: ONO 349km
Actualización: 11/12/2017 17:30
Muy nuboso
Muy nuboso
 Viento del ONO
Viento: ONO 19 km/h
Temperatura: 4°C
Sensación frio: 0°C
Rocío: 2°C
Humedad: 87%
Barómetro: 999 hPa
Clouds: Muy nuboso
Visibility: 10 km
Cloud details: Parcialmente nuboso 457 m
Muy nuboso 701 m
2017/12/11 16:30 LESA 111630Z 29010KT 9999 SCT015 BKN023 04/02 Q0999
 
LEXJ - Santander/Paraya, Spain
Distance from station: NNO 247km
Actualización: 11/12/2017 17:30
Lluvia intensa, Showers, Small hail, Muy nuboso
Lluvia intensa, Showers, Small hail, Muy nuboso
 Viento del OSO
Viento: OSO 28 km/h, Racha: 46 km/h
Temperatura: 7°C
Sensación frio: 3°C
Rocío: 5°C
Humedad: 87%
Barómetro: 999 hPa
Resumen: Lluvia intensa, Showers, Small hail
Clouds: Muy nuboso
Visibility: 4 km
Cloud details: Muy nuboso 610 m
Muy nuboso 914 m
Muy nuboso 1158 m
2017/12/11 16:30 LEXJ 111630Z 24015G25KT 210V270 4000 +SHRAGS BKN020CB BKN030 BKN038 07/05 Q0999
LEAS - Asturias/Aviles, Spain
Distance from station: NO 214km
Actualización: 11/12/2017 17:30
Parcialmente nuboso
Parcialmente nuboso
 Viento del ONO
Viento: ONO 26 km/h
Temperatura: 7°C
Sensación frio: 3°C
Rocío: 5°C
Humedad: 87%
Barómetro: 1001 hPa
Clouds: Parcialmente nuboso
Visibility: 10 km
Cloud details: Few Clouds 762 m
Parcialmente nuboso 1372 m
2017/12/11 16:30 LEAS 111630Z 30014KT 270V340 9999 FEW025TCU SCT045 07/05 Q1001 TEMPO 3000 SHRAGR
 
LECO - La Coruna/Alvedr, Spain
Distance from station: ONO 222km
Actualización: 11/12/2017 17:30
Parcialmente nuboso
Parcialmente nuboso
 Viento del varies
Viento: varies 2 km/h
Temperatura: 8°C
Rocío: 3°C
Humedad: 71%
Barómetro: 1005 hPa
Clouds: Parcialmente nuboso
Visibility: 10 km
Cloud details: Parcialmente nuboso 1219 m
2017/12/11 16:30 LECO 111630Z VRB01KT 9999 SCT040 08/03 Q1005 TEMPO 3000 SHRA SCT020TCU
LEVX - Vigo/Peinador, Spain
Distance from station: O 214km
Actualización: 11/12/2017 17:30
Few Clouds
Few Clouds
 Viento del NNO
Viento: NNO 15 km/h
Temperatura: 9°C
Sensación frio: 7°C
Rocío: 2°C
Humedad: 62%
Barómetro: 1005 hPa
Clouds: Few Clouds
Visibility: 10 km
Cloud details: Few Clouds 1097 m
2017/12/11 16:30 LEVX 111630Z 33008KT 290V010 9999 FEW036 09/02 Q1005 TEMPO 3000 SHRA SCT020CB